createdAt,value
2022-11-10T07:45:47.046Z,1.08
2022-11-10T07:46:48.475Z,1.40
2022-11-10T07:47:53.968Z,1.30
2022-11-10T07:48:55.374Z,1.40
2022-11-10T07:49:56.686Z,1.63
2022-11-10T07:50:58.043Z,1.30
2022-11-10T07:51:59.370Z,1.65
2022-11-10T07:53:07.950Z,1.50
2022-11-10T07:54:09.388Z,1.48
2022-11-10T07:55:11.114Z,1.40
2022-11-10T07:56:12.622Z,1.58
2022-11-10T07:57:14.032Z,1.75
2022-11-10T07:58:17.355Z,2.45
2022-11-10T07:59:18.755Z,2.13
2022-11-10T08:00:20.139Z,2.55
2022-11-10T08:01:21.503Z,2.88
2022-11-10T08:02:22.957Z,3.15
2022-11-10T08:03:24.650Z,2.10
2022-11-10T08:04:26.174Z,2.10
2022-11-10T08:05:27.750Z,2.38
2022-11-10T08:06:32.240Z,1.83
2022-11-10T08:07:36.462Z,1.90
2022-11-10T08:08:37.937Z,1.80
2022-11-10T08:09:39.298Z,1.58
2022-11-10T08:10:41.626Z,2.50
2022-11-10T08:11:42.962Z,1.55
2022-11-10T08:12:44.280Z,1.90
2022-11-10T08:13:45.615Z,1.55
2022-11-10T08:14:46.999Z,2.05
2022-11-10T08:15:48.573Z,2.38
2022-11-10T08:16:50.517Z,2.28
2022-11-10T08:17:51.997Z,2.78
2022-11-10T08:18:53.531Z,2.45
2022-11-10T08:19:54.900Z,2.50
2022-11-10T08:20:56.304Z,1.90
2022-11-10T08:21:57.648Z,2.30
2022-11-10T08:23:05.922Z,2.30
2022-11-10T08:24:10.828Z,1.90
2022-11-10T08:25:12.346Z,2.10
2022-11-10T08:26:16.571Z,2.28
2022-11-10T08:27:17.900Z,2.25
2022-11-10T08:28:19.886Z,2.13
2022-11-10T08:29:21.329Z,2.38
2022-11-10T08:30:22.769Z,2.40
2022-11-10T08:31:24.529Z,2.38
2022-11-10T08:32:26.021Z,2.03
2022-11-10T08:33:27.367Z,2.28
2022-11-10T08:34:28.736Z,2.10
2022-11-10T08:35:31.353Z,2.20
2022-11-10T08:36:32.812Z,1.83
2022-11-10T08:37:34.223Z,1.80
2022-11-10T08:38:35.807Z,1.98
2022-11-10T08:39:39.570Z,1.55
2022-11-10T08:40:41.844Z,2.65
2022-11-10T08:41:43.238Z,2.45
2022-11-10T08:42:44.675Z,1.33
2022-11-10T08:43:45.998Z,1.83
2022-11-10T08:44:47.444Z,1.45
2022-11-10T08:45:48.947Z,1.85
2022-11-10T08:46:50.953Z,1.33
2022-11-10T08:48:03.962Z,1.85
2022-11-10T08:49:05.378Z,1.63
2022-11-10T08:50:07.890Z,1.30
2022-11-10T08:51:09.340Z,1.60
2022-11-10T08:52:11.301Z,2.00
2022-11-10T08:53:15.098Z,1.42
2022-11-10T08:54:16.500Z,2.70
2022-11-10T08:55:19.997Z,2.58
2022-11-10T08:56:21.572Z,2.17
2022-11-10T08:57:23.081Z,2.67
2022-11-10T08:58:24.532Z,2.35
2022-11-10T08:59:26.125Z,1.75
2022-11-10T09:00:28.650Z,1.20
2022-11-10T09:01:30.116Z,1.70
2022-11-10T09:02:31.979Z,1.65
2022-11-10T09:03:33.301Z,1.50
2022-11-10T09:04:34.707Z,1.75
2022-11-10T09:05:36.736Z,1.60
2022-11-10T09:06:38.144Z,1.33
2022-11-10T09:07:47.831Z,1.70
2022-11-10T09:08:49.374Z,1.75
2022-11-10T09:10:06.049Z,1.70
2022-11-10T09:11:08.376Z,1.52
2022-11-10T09:12:09.705Z,1.48
2022-11-10T09:13:12.964Z,1.30
2022-11-10T09:14:14.756Z,1.50
2022-11-10T09:15:16.167Z,1.25
2022-11-10T09:16:17.693Z,1.30
2022-11-10T09:17:19.037Z,1.48
2022-11-10T09:18:20.359Z,1.10
2022-11-10T09:19:21.697Z,1.60
2022-11-10T09:20:23.155Z,1.10
2022-11-10T09:21:24.511Z,1.48
2022-11-10T09:22:26.005Z,1.73
2022-11-10T09:23:28.084Z,1.65
2022-11-10T09:24:31.513Z,1.60
2022-11-10T09:25:33.448Z,1.48
2022-11-10T09:26:34.885Z,1.27
2022-11-10T09:27:39.174Z,1.35
2022-11-10T09:28:40.530Z,1.48
2022-11-10T09:29:42.046Z,1.35
2022-11-10T09:30:46.744Z,1.20
2022-11-10T09:31:48.419Z,1.30
2022-11-10T09:32:57.632Z,1.88
2022-11-10T09:33:59.225Z,1.65
2022-11-10T09:35:01.634Z,1.40
2022-11-10T09:36:03.057Z,1.58
2022-11-10T09:37:04.543Z,1.45
2022-11-10T09:38:06.632Z,1.60
2022-11-10T09:39:08.005Z,1.40
2022-11-10T09:40:23.326Z,1.50
2022-11-10T09:41:24.806Z,1.45
2022-11-10T09:42:41.267Z,1.40
2022-11-10T09:43:47.502Z,1.80
2022-11-10T09:45:00.027Z,1.13
2022-11-10T09:46:06.267Z,1.67
2022-11-10T09:47:50.591Z,1.60
2022-11-10T09:48:56.188Z,1.50
2022-11-10T09:50:00.884Z,1.50
2022-11-10T09:51:07.001Z,1.00
2022-11-10T09:52:12.390Z,1.50
2022-11-10T09:53:21.548Z,1.30
2022-11-10T09:54:47.741Z,1.10
2022-11-10T09:55:52.521Z,1.50
2022-11-10T09:57:00.170Z,1.25
2022-11-10T09:58:02.510Z,1.30
2022-11-10T09:59:19.344Z,1.20
2022-11-10T10:00:20.982Z,1.23
2022-11-10T10:01:29.111Z,1.20
2022-11-10T10:02:48.091Z,2.58
2022-11-10T10:04:13.738Z,1.15
2022-11-10T10:05:29.269Z,1.38
2022-11-10T10:06:57.157Z,1.10
2022-11-10T10:08:05.805Z,1.77
2022-11-10T10:09:07.086Z,1.10
2022-11-10T10:10:25.930Z,1.83
2022-11-10T10:11:36.398Z,1.35
2022-11-10T10:13:10.116Z,1.20
2022-11-10T10:14:31.088Z,1.50
2022-11-10T10:15:42.213Z,0.98
2022-11-10T10:16:49.488Z,1.05
2022-11-10T10:18:06.575Z,1.33
2022-11-10T10:19:46.996Z,1.67
2022-11-10T10:20:57.545Z,1.40
2022-11-10T10:22:20.320Z,1.30
2022-11-10T10:24:07.064Z,1.42
2022-11-10T10:25:02.080Z,1.13
2022-11-10T10:26:03.894Z,1.20
2022-11-10T10:27:10.251Z,1.05
2022-11-10T10:28:40.085Z,1.48
2022-11-10T10:29:46.943Z,1.40
2022-11-10T10:30:48.620Z,1.10
2022-11-10T10:31:51.788Z,1.20
2022-11-10T10:33:00.128Z,1.15
2022-11-10T10:34:02.508Z,2.40
2022-11-10T10:35:04.157Z,1.60
2022-11-10T10:36:14.385Z,1.63
2022-11-10T10:37:35.583Z,1.75
2022-11-10T10:38:40.068Z,1.33
2022-11-10T10:39:46.374Z,1.45
2022-11-10T10:40:50.600Z,1.27
2022-11-10T10:41:52.350Z,1.33
2022-11-10T10:42:54.508Z,1.20
2022-11-10T10:43:58.221Z,1.70
2022-11-10T10:45:16.597Z,1.20
2022-11-10T10:46:20.251Z,1.38
2022-11-10T10:47:36.888Z,1.33
2022-11-10T10:48:38.221Z,1.10
2022-11-10T10:49:42.462Z,1.25
2022-11-10T10:50:43.909Z,1.27
2022-11-10T10:51:45.712Z,1.90
2022-11-10T10:53:07.873Z,1.30
2022-11-10T10:54:36.268Z,1.15
2022-11-10T10:55:41.366Z,1.50
2022-11-10T10:56:42.702Z,1.15
2022-11-10T10:57:51.905Z,1.00
2022-11-10T10:59:00.315Z,1.10
2022-11-10T11:00:21.495Z,1.75
2022-11-10T11:01:30.666Z,1.25
2022-11-10T11:02:35.572Z,3.05
2022-11-10T11:03:45.465Z,3.10
2022-11-10T11:04:46.789Z,3.40
2022-11-10T11:06:07.100Z,1.42
2022-11-10T11:07:24.408Z,1.10
2022-11-10T11:08:26.955Z,1.00
2022-11-10T11:09:38.223Z,1.40
2022-11-10T11:10:46.008Z,1.20
2022-11-10T11:12:10.384Z,1.30
2022-11-10T11:13:21.655Z,1.38
2022-11-10T11:14:26.643Z,1.08
2022-11-10T11:15:30.327Z,1.20
2022-11-10T11:16:56.349Z,1.27
2022-11-10T11:18:03.692Z,1.30
2022-11-10T11:19:05.146Z,1.35
2022-11-10T11:20:14.421Z,1.45
2022-11-10T11:21:37.238Z,0.98
2022-11-10T11:22:49.085Z,1.35
2022-11-10T11:24:12.128Z,1.25
2022-11-10T11:25:33.305Z,1.27
2022-11-10T11:26:51.416Z,1.05
2022-11-10T11:28:11.553Z,1.60
2022-11-10T11:29:55.732Z,0.90
2022-11-10T11:31:06.277Z,1.25
2022-11-10T11:32:33.618Z,1.80
2022-11-10T11:33:42.460Z,1.30
2022-11-10T11:35:06.981Z,1.10
2022-11-10T11:36:17.871Z,1.40
2022-11-10T11:37:46.703Z,1.00
2022-11-10T11:38:58.642Z,2.03
2022-11-10T11:40:24.098Z,1.23
2022-11-10T11:41:31.541Z,1.70
2022-11-10T11:42:41.977Z,1.20
2022-11-10T11:43:55.570Z,1.17
2022-11-10T11:45:18.857Z,1.25
2022-11-10T11:46:38.568Z,1.17
2022-11-10T11:47:52.860Z,1.15
2022-11-10T11:49:25.407Z,1.05
2022-11-10T11:50:35.889Z,1.00
2022-11-10T11:51:49.629Z,1.10
2022-11-10T11:53:12.833Z,1.40
2022-11-10T11:54:45.461Z,1.13
2022-11-10T11:56:21.200Z,1.05
2022-11-10T11:57:58.993Z,1.30
2022-11-10T11:59:10.024Z,1.42
2022-11-10T12:00:17.306Z,1.35
2022-11-10T12:01:55.531Z,1.17
2022-11-10T12:03:33.543Z,1.42
2022-11-10T12:04:49.903Z,1.50
2022-11-10T12:06:29.204Z,1.35
2022-11-10T12:07:59.873Z,1.23
2022-11-10T12:09:11.955Z,1.25
2022-11-10T12:10:37.271Z,1.50
2022-11-10T12:12:09.373Z,1.00
2022-11-10T12:13:37.590Z,1.17
2022-11-10T12:14:56.914Z,1.27
2022-11-10T12:15:58.185Z,1.20
2022-11-10T12:17:33.442Z,1.42
2022-11-10T12:18:50.967Z,2.00
2022-11-10T12:20:09.275Z,1.60
2022-11-10T12:21:23.889Z,1.30
2022-11-10T12:22:33.980Z,0.88
2022-11-10T12:23:38.083Z,1.23
2022-11-10T12:25:07.312Z,1.20
2022-11-10T12:26:52.319Z,1.30
2022-11-10T12:28:09.526Z,1.13
2022-11-10T12:29:48.871Z,0.80
2022-11-10T12:31:00.560Z,0.80
2022-11-10T12:32:21.498Z,1.10
2022-11-10T12:33:44.359Z,1.45
2022-11-10T12:35:05.687Z,1.13
2022-11-10T12:36:15.759Z,6.63
2022-11-10T12:37:28.495Z,4.13
2022-11-10T12:38:41.960Z,1.88
2022-11-10T12:39:53.741Z,6.57
2022-11-10T12:41:07.453Z,1.13
2022-11-10T12:42:18.189Z,1.10
2022-11-10T12:43:35.061Z,1.20
2022-11-10T12:44:58.159Z,1.42
2022-11-10T12:46:04.756Z,0.93
2022-11-10T12:47:14.836Z,0.90
2022-11-10T12:48:17.560Z,1.30
2022-11-10T12:49:33.904Z,1.00
2022-11-10T12:50:58.389Z,0.90
2022-11-10T12:52:17.755Z,1.70
2022-11-10T12:53:26.189Z,1.10
2022-11-10T12:54:28.659Z,1.10
2022-11-10T12:55:44.515Z,1.40
2022-11-10T12:56:51.892Z,1.05
2022-11-10T12:57:53.570Z,1.10
2022-11-10T12:59:23.392Z,1.00
2022-11-10T13:00:31.703Z,1.25
2022-11-10T13:01:33.352Z,1.10
2022-11-10T13:02:46.889Z,0.90
2022-11-10T13:03:58.419Z,1.50
2022-11-10T13:05:10.380Z,1.70
2022-11-10T13:06:28.708Z,2.97
2022-11-10T13:07:30.145Z,1.23
2022-11-10T13:08:44.979Z,1.23
2022-11-10T13:09:46.423Z,1.15
2022-11-10T13:10:52.704Z,1.20
2022-11-10T13:12:04.582Z,1.20
2022-11-10T13:13:06.050Z,1.00
2022-11-10T13:14:27.823Z,1.00
2022-11-10T13:15:37.915Z,1.48
2022-11-10T13:16:40.430Z,1.23
2022-11-10T13:17:41.713Z,1.20
2022-11-10T13:18:43.026Z,0.90
2022-11-10T13:19:53.505Z,1.10
2022-11-10T13:20:55.725Z,1.20
2022-11-10T13:22:00.614Z,1.13
2022-11-10T13:23:21.277Z,1.05
2022-11-10T13:24:36.610Z,1.35
2022-11-10T13:25:42.282Z,1.85
2022-11-10T13:26:43.772Z,1.08
2022-11-10T13:27:54.071Z,1.20
2022-11-10T13:28:57.858Z,0.95
2022-11-10T13:30:00.114Z,1.35
2022-11-10T13:31:30.323Z,1.20
2022-11-10T13:32:35.402Z,1.15
2022-11-10T13:33:38.293Z,1.15
2022-11-10T13:34:44.235Z,1.15
2022-11-10T13:35:55.637Z,1.00
2022-11-10T13:36:57.893Z,1.20
2022-11-10T13:37:59.369Z,1.60
2022-11-10T13:39:26.919Z,1.00
2022-11-10T13:40:31.539Z,1.55
2022-11-10T13:41:34.685Z,1.35
2022-11-10T13:42:36.228Z,1.17
2022-11-10T13:43:48.869Z,0.93
2022-11-10T13:44:52.341Z,1.05
2022-11-10T13:46:02.976Z,1.20
2022-11-10T13:47:39.706Z,1.23
2022-11-10T13:49:19.647Z,1.00
2022-11-10T13:50:30.415Z,1.40
2022-11-10T13:51:41.528Z,0.90
2022-11-10T13:53:05.684Z,1.20
2022-11-10T13:54:30.088Z,0.90
2022-11-10T13:55:47.253Z,0.82
2022-11-10T13:57:04.615Z,0.93
2022-11-10T13:58:14.512Z,0.82
2022-11-10T13:59:22.715Z,1.15
2022-11-10T14:00:27.762Z,1.10
2022-11-10T14:01:30.285Z,1.10
2022-11-10T14:02:34.794Z,1.10
2022-11-10T14:04:05.380Z,0.90
2022-11-10T14:05:09.294Z,1.10
2022-11-10T14:06:15.737Z,1.08
2022-11-10T14:07:18.964Z,0.98
2022-11-10T14:08:25.798Z,0.85
2022-11-10T14:09:42.096Z,1.25
2022-11-10T14:10:58.766Z,1.73
2022-11-10T14:12:13.308Z,0.95
2022-11-10T14:13:23.716Z,1.42
2022-11-10T14:14:35.971Z,1.10
2022-11-10T14:15:46.092Z,0.70
2022-11-10T14:16:47.725Z,1.05
2022-11-10T14:17:51.831Z,1.30
2022-11-10T14:18:58.896Z,1.17
2022-11-10T14:20:01.243Z,1.23
2022-11-10T14:21:03.565Z,0.90
2022-11-10T14:22:21.668Z,1.27
2022-11-10T14:23:31.331Z,1.08
2022-11-10T14:24:39.167Z,1.42
2022-11-10T14:25:43.971Z,1.05
2022-11-10T14:26:52.016Z,0.88
2022-11-10T14:27:57.913Z,1.15
2022-11-10T14:29:20.250Z,1.20
2022-11-10T14:30:21.714Z,1.20
2022-11-10T14:31:25.320Z,1.33
2022-11-10T14:32:26.847Z,1.00
2022-11-10T14:33:28.225Z,0.90
2022-11-10T14:34:31.789Z,0.90
2022-11-10T14:35:44.635Z,0.90
2022-11-10T14:36:59.013Z,0.90
2022-11-10T14:38:02.757Z,1.00
2022-11-10T14:39:06.664Z,0.90
2022-11-10T14:40:18.963Z,1.15
2022-11-10T14:41:22.765Z,1.05
2022-11-10T14:42:26.721Z,1.00
2022-11-10T14:43:29.935Z,1.10
2022-11-10T14:44:33.064Z,0.90
2022-11-10T14:45:34.566Z,1.00
2022-11-10T14:46:38.240Z,1.00
2022-11-10T14:47:39.802Z,1.13
2022-11-10T14:48:41.249Z,1.55
2022-11-10T14:49:43.855Z,0.95
2022-11-10T14:50:45.404Z,1.40
2022-11-10T14:51:46.990Z,0.98
2022-11-10T14:52:53.898Z,1.20
2022-11-10T14:53:57.272Z,1.30
2022-11-10T14:54:59.255Z,1.40
2022-11-10T14:56:03.604Z,1.15
2022-11-10T14:57:06.054Z,1.00
2022-11-10T14:58:15.255Z,1.38
2022-11-10T14:59:17.852Z,1.90
2022-11-10T15:00:25.219Z,1.20
2022-11-10T15:01:33.822Z,1.70
2022-11-10T15:02:36.064Z,1.70
2022-11-10T15:03:42.371Z,1.17
2022-11-10T15:04:46.178Z,1.27
2022-11-10T15:05:48.850Z,1.00
2022-11-10T15:06:53.263Z,1.42
2022-11-10T15:07:56.513Z,1.52
2022-11-10T15:09:01.736Z,1.35
2022-11-10T15:10:14.536Z,1.73
2022-11-10T15:11:47.087Z,1.17
2022-11-10T15:13:19.791Z,1.10
2022-11-10T15:14:49.561Z,1.27
2022-11-10T15:15:53.678Z,1.75
2022-11-10T15:17:06.152Z,0.90
2022-11-10T15:18:24.622Z,1.58
2022-11-10T15:19:31.455Z,1.15
2022-11-10T15:20:41.451Z,1.45
2022-11-10T15:21:42.805Z,1.58
2022-11-10T15:22:44.456Z,1.40
2022-11-10T15:23:52.329Z,1.75
2022-11-10T15:24:53.715Z,1.50
2022-11-10T15:25:55.381Z,1.58
2022-11-10T15:26:57.018Z,1.60
2022-11-10T15:28:05.548Z,1.70
2022-11-10T15:29:21.478Z,1.63
2022-11-10T15:30:24.707Z,1.20
2022-11-10T15:31:31.816Z,1.45
2022-11-10T15:32:42.468Z,1.60
2022-11-10T15:33:51.171Z,1.90
2022-11-10T15:34:53.165Z,2.00
2022-11-10T15:35:56.311Z,1.73
2022-11-10T15:37:27.392Z,1.10
2022-11-10T15:38:32.259Z,1.45
2022-11-10T15:39:33.809Z,1.33
2022-11-10T15:40:43.068Z,1.83
2022-11-10T15:41:48.924Z,1.27
2022-11-10T15:43:27.556Z,1.30
2022-11-10T15:44:29.125Z,2.20
2022-11-10T15:45:30.459Z,1.00
2022-11-10T15:46:31.842Z,1.45
2022-11-10T15:47:33.514Z,1.40
2022-11-10T15:48:41.719Z,2.00
2022-11-10T15:49:43.883Z,2.15
2022-11-10T15:50:51.011Z,1.67
2022-11-10T15:51:57.515Z,1.50
2022-11-10T15:52:59.216Z,1.60
2022-11-10T15:54:00.559Z,1.60
2022-11-10T15:55:01.897Z,1.73
2022-11-10T15:56:03.480Z,1.20
2022-11-10T15:57:10.685Z,1.38
2022-11-10T15:58:20.643Z,2.80
2022-11-10T15:59:22.350Z,1.60
2022-11-10T16:00:24.135Z,1.30
2022-11-10T16:01:25.774Z,1.27
2022-11-10T16:02:27.209Z,1.42
2022-11-10T16:03:31.453Z,1.40
2022-11-10T16:04:32.780Z,1.50
2022-11-10T16:05:34.133Z,1.45
2022-11-10T16:06:35.554Z,1.45
2022-11-10T16:07:37.146Z,1.40
2022-11-10T16:08:38.650Z,1.60
2022-11-10T16:09:40.101Z,1.75
2022-11-10T16:10:46.932Z,2.05
2022-11-10T16:11:48.397Z,1.30
2022-11-10T16:12:49.838Z,2.55
2022-11-10T16:13:52.805Z,1.88
2022-11-10T16:14:55.039Z,1.08
2022-11-10T16:15:59.339Z,1.80
2022-11-10T16:17:03.626Z,1.40
2022-11-10T16:18:11.839Z,1.60
2022-11-10T16:19:13.276Z,1.80
2022-11-10T16:20:15.127Z,1.58
2022-11-10T16:21:19.922Z,1.55
2022-11-10T16:22:21.307Z,1.58
2022-11-10T16:23:23.818Z,1.85
2022-11-10T16:24:25.152Z,1.75
2022-11-10T16:25:27.927Z,1.50
2022-11-10T16:26:30.389Z,1.50
2022-11-10T16:27:31.872Z,1.65
2022-11-10T16:28:34.248Z,1.30
2022-11-10T16:29:36.635Z,1.35
2022-11-10T16:30:38.194Z,1.60
2022-11-10T16:31:39.544Z,2.35
2022-11-10T16:32:40.909Z,2.63
2022-11-10T16:33:42.366Z,1.55
2022-11-10T16:34:43.752Z,1.23
2022-11-10T16:35:45.281Z,1.30
2022-11-10T16:36:47.522Z,2.05
2022-11-10T16:37:49.139Z,1.30
2022-11-10T16:38:53.062Z,1.75
2022-11-10T16:39:54.460Z,2.08
2022-11-10T16:41:00.913Z,1.70
2022-11-10T16:42:02.373Z,1.73
2022-11-10T16:43:03.804Z,1.55
2022-11-10T16:44:05.987Z,1.55
2022-11-10T16:45:20.657Z,2.05
2022-11-10T16:46:24.590Z,1.85
2022-11-10T16:47:27.618Z,1.55
2022-11-10T16:48:32.592Z,1.92
2022-11-10T16:49:35.711Z,1.77
2022-11-10T16:50:41.102Z,1.52
2022-11-10T16:51:48.594Z,2.20
2022-11-10T16:52:50.562Z,3.15
2022-11-10T16:53:53.545Z,2.20
2022-11-10T16:54:54.944Z,2.35
2022-11-10T16:56:01.026Z,2.85
2022-11-10T16:57:02.550Z,2.58
2022-11-10T16:58:03.940Z,2.22
2022-11-10T16:59:05.320Z,2.92
2022-11-10T17:00:07.360Z,4.30
2022-11-10T17:01:21.271Z,2.80
2022-11-10T17:02:35.281Z,5.47
2022-11-10T17:03:40.179Z,4.03
2022-11-10T17:04:41.526Z,3.03
2022-11-10T17:05:43.360Z,2.55
2022-11-10T17:06:45.063Z,2.53
2022-11-10T17:07:47.138Z,2.25
2022-11-10T17:08:51.261Z,2.30
2022-11-10T17:09:52.810Z,1.52
2022-11-10T17:10:56.774Z,2.20
2022-11-10T17:11:58.174Z,2.28
2022-11-10T17:12:59.515Z,2.22
2022-11-10T17:14:00.850Z,2.00
2022-11-10T17:15:02.299Z,2.00
2022-11-10T17:16:07.710Z,1.60
2022-11-10T17:17:18.372Z,1.73
2022-11-10T17:18:26.907Z,2.55
2022-11-10T17:19:28.304Z,6.15
2022-11-10T17:20:34.422Z,3.53
2022-11-10T17:21:36.510Z,4.18
2022-11-10T17:22:38.050Z,4.25
2022-11-10T17:23:43.278Z,3.72
2022-11-10T17:24:47.790Z,3.10
2022-11-10T17:25:50.461Z,2.85
2022-11-10T17:26:51.860Z,4.85
2022-11-10T17:27:53.859Z,4.93
2022-11-10T17:28:59.536Z,5.97
2022-11-10T17:30:01.196Z,3.90
2022-11-10T17:31:03.254Z,4.72
2022-11-10T17:32:04.917Z,4.25
2022-11-10T17:33:06.939Z,5.18
2022-11-10T17:34:11.342Z,5.80
2022-11-10T17:35:13.045Z,4.82
2022-11-10T17:36:18.632Z,5.57
2022-11-10T17:37:20.045Z,5.80
2022-11-10T17:38:24.410Z,5.38
2022-11-10T17:39:29.659Z,6.18
2022-11-10T17:40:31.180Z,5.88
2022-11-10T17:41:33.982Z,4.97
2022-11-10T17:42:35.352Z,4.25
2022-11-10T17:43:38.567Z,5.40
2022-11-10T17:44:41.796Z,5.63
2022-11-10T17:45:43.534Z,5.70
2022-11-10T17:46:45.058Z,6.28
2022-11-10T17:47:48.253Z,5.53
2022-11-10T17:48:49.936Z,4.20
2022-11-10T17:49:51.394Z,4.15
2022-11-10T17:50:52.736Z,4.70
2022-11-10T17:51:54.111Z,4.38
2022-11-10T17:52:55.563Z,4.97
2022-11-10T17:53:58.834Z,4.82
2022-11-10T17:55:00.216Z,5.63
2022-11-10T17:56:01.545Z,7.97
2022-11-10T17:57:04.422Z,11.40
2022-11-10T17:58:05.878Z,14.38
2022-11-10T17:59:07.432Z,14.95
2022-11-10T18:00:09.693Z,13.80
2022-11-10T18:01:18.005Z,13.50
2022-11-10T18:02:19.395Z,11.95
2022-11-10T18:03:22.485Z,11.05
2022-11-10T18:04:24.101Z,9.07
2022-11-10T18:05:25.510Z,9.60
2022-11-10T18:06:26.918Z,6.57
2022-11-10T18:07:28.248Z,5.97
2022-11-10T18:08:29.570Z,6.80
2022-11-10T18:09:30.901Z,6.18
2022-11-10T18:10:32.252Z,4.93
2022-11-10T18:11:37.196Z,5.50
2022-11-10T18:12:38.754Z,4.38
2022-11-10T18:13:41.844Z,3.15
2022-11-10T18:14:43.164Z,3.17
2022-11-10T18:15:46.302Z,5.82
2022-11-10T18:16:47.768Z,4.65
2022-11-10T18:17:49.120Z,4.68
2022-11-10T18:18:50.512Z,3.67
2022-11-10T18:19:51.897Z,4.85
2022-11-10T18:20:56.435Z,3.95
2022-11-10T18:21:57.812Z,5.38
2022-11-10T18:22:59.695Z,3.90
2022-11-10T18:24:01.982Z,3.60
2022-11-10T18:25:04.161Z,3.15
2022-11-10T18:26:11.835Z,3.05
2022-11-10T18:27:13.157Z,2.95
2022-11-10T18:28:14.791Z,2.97
2022-11-10T18:29:16.147Z,2.65
2022-11-10T18:30:18.995Z,2.53
2022-11-10T18:31:20.585Z,3.00
2022-11-10T18:32:23.043Z,2.13
2022-11-10T18:33:24.663Z,2.83
2022-11-10T18:34:26.336Z,3.50
2022-11-10T18:35:31.923Z,2.90
2022-11-10T18:36:33.332Z,2.58
2022-11-10T18:37:38.771Z,5.22
2022-11-10T18:38:40.489Z,4.40
2022-11-10T18:39:42.313Z,4.10
2022-11-10T18:40:43.656Z,3.97
2022-11-10T18:41:52.197Z,5.00
2022-11-10T18:42:58.553Z,5.03
2022-11-10T18:44:02.086Z,4.03
2022-11-10T18:45:03.989Z,3.80
2022-11-10T18:46:05.473Z,3.42
2022-11-10T18:47:10.707Z,3.63
2022-11-10T18:48:12.045Z,2.53
2022-11-10T18:49:13.885Z,2.60
2022-11-10T18:50:15.348Z,2.20
2022-11-10T18:51:16.767Z,2.53
2022-11-10T18:52:18.300Z,2.95
2022-11-10T18:53:19.754Z,4.10
2022-11-10T18:54:21.364Z,3.40
2022-11-10T18:55:22.737Z,4.07
2022-11-10T18:56:25.723Z,3.78
2022-11-10T18:57:27.120Z,4.35
2022-11-10T18:58:28.496Z,5.03
